createdAt,value
2023-03-06T00:54:54.757Z,25.00
2023-03-06T00:55:55.716Z,25.00
2023-03-06T00:56:55.708Z,25.00
2023-03-06T00:57:55.718Z,25.00
2023-03-06T00:58:55.700Z,25.00
2023-03-06T00:59:55.680Z,25.00
2023-03-06T01:00:55.734Z,0.00
2023-03-06T01:01:55.739Z,0.00
2023-03-06T01:02:55.659Z,0.00
2023-03-06T01:03:55.713Z,0.00
2023-03-06T01:04:55.677Z,0.00
2023-03-06T01:05:55.678Z,0.00
2023-03-06T01:06:55.678Z,10.28
2023-03-06T01:07:55.634Z,24.28
2023-03-06T01:08:55.678Z,25.69
2023-03-06T01:09:55.589Z,26.86
2023-03-06T01:10:55.607Z,26.02
2023-03-06T01:11:55.578Z,25.56
2023-03-06T01:12:55.576Z,26.25
2023-03-06T01:13:55.559Z,25.81
2023-03-06T01:14:55.558Z,25.23
2023-03-06T01:15:55.541Z,25.42
2023-03-06T01:16:55.543Z,26.13
2023-03-06T01:17:55.542Z,25.60
2023-03-06T01:18:55.512Z,25.32
2023-03-06T01:19:55.509Z,26.08
2023-03-06T01:20:55.492Z,25.00
2023-03-06T01:21:55.488Z,25.10
2023-03-06T01:22:55.471Z,27.04
2023-03-06T01:23:55.474Z,25.35
2023-03-06T01:24:55.462Z,25.50
2023-03-06T01:25:55.451Z,26.25
2023-03-06T01:26:55.475Z,27.93
2023-03-06T01:27:55.438Z,25.00
2023-03-06T01:28:55.426Z,25.10
2023-03-06T01:29:55.414Z,27.79
2023-03-06T01:30:55.405Z,26.47
2023-03-06T01:31:55.568Z,25.00
2023-03-06T01:32:55.395Z,26.47
2023-03-06T01:33:55.384Z,29.94
2023-03-06T01:34:55.375Z,26.46
2023-03-06T01:35:55.435Z,25.32
2023-03-06T01:36:55.360Z,28.47
2023-03-06T02:41:54.811Z,27.55
2023-03-06T02:44:54.804Z,29.92
2023-03-06T03:54:54.182Z,29.36
2023-03-06T04:36:53.822Z,38.45
2023-03-06T05:12:53.524Z,42.60
2023-03-06T05:13:53.504Z,43.85
2023-03-06T05:14:53.497Z,43.48
2023-03-06T05:15:53.489Z,43.36
2023-03-06T05:16:53.483Z,45.22
2023-03-06T05:17:53.473Z,46.00
2023-03-06T05:18:53.468Z,43.68
2023-03-06T05:19:53.452Z,40.56
2023-03-06T05:20:53.454Z,41.00
2023-03-06T05:21:53.445Z,44.24
2023-03-06T05:22:53.429Z,42.37
2023-03-06T05:23:53.420Z,44.72
2023-03-06T05:24:53.414Z,42.38
2023-03-06T05:25:53.411Z,44.11
2023-03-06T05:26:53.421Z,42.91
2023-03-06T05:27:53.396Z,43.91
2023-03-06T05:28:53.377Z,41.79
2023-03-06T05:29:53.382Z,42.60
2023-03-06T05:30:53.371Z,42.70
2023-03-06T05:31:53.407Z,43.41
2023-03-06T05:32:53.392Z,45.77
2023-03-06T05:33:53.337Z,45.20
2023-03-06T05:34:53.335Z,44.56
2023-03-06T05:35:53.368Z,43.23
2023-03-06T05:36:53.316Z,44.86
2023-03-06T05:37:53.306Z,46.51
2023-03-06T05:38:53.298Z,44.14
2023-03-06T05:39:53.292Z,46.69
2023-03-06T05:40:53.289Z,44.50
2023-03-06T05:41:53.275Z,45.02
2023-03-06T05:42:53.292Z,44.36
2023-03-06T05:43:53.255Z,48.04
2023-03-06T05:44:53.249Z,42.85
2023-03-06T05:45:53.288Z,47.74
2023-03-06T05:46:53.230Z,44.39
2023-03-06T05:47:53.224Z,46.09
2023-03-06T05:48:53.220Z,43.74
2023-03-06T05:49:53.213Z,44.95
2023-03-06T05:50:53.200Z,42.97
2023-03-06T05:51:53.191Z,43.73
2023-03-06T05:52:53.185Z,47.02
2023-03-06T05:53:53.179Z,44.16
2023-03-06T05:54:53.172Z,45.88
2023-03-06T05:55:53.161Z,46.37
2023-03-06T05:56:53.154Z,45.19
2023-03-06T05:57:53.141Z,44.95
2023-03-06T05:58:53.162Z,43.90
2023-03-06T05:59:53.119Z,45.83
2023-03-06T06:00:53.108Z,46.42
2023-03-06T06:01:53.109Z,44.74
2023-03-06T06:02:53.095Z,46.92
2023-03-06T06:03:53.197Z,44.92
2023-03-06T06:04:53.087Z,46.83
2023-03-06T06:05:53.073Z,46.50
2023-03-06T06:06:53.056Z,47.26
2023-03-06T06:07:53.059Z,47.64
2023-03-06T06:08:53.055Z,43.72
2023-03-06T06:09:53.046Z,42.51
2023-03-06T06:10:53.531Z,40.26
2023-03-06T06:11:53.018Z,38.75
2023-03-06T06:12:53.010Z,34.71
2023-03-06T06:13:52.999Z,37.24
2023-03-06T06:14:53.021Z,31.07
2023-03-06T06:15:53.017Z,32.07
2023-03-06T06:16:53.945Z,26.00
2023-03-06T06:17:52.974Z,27.26
2023-03-06T06:18:52.979Z,25.06
2023-03-06T06:19:52.953Z,27.62
2023-03-06T06:20:54.950Z,25.00
2023-03-06T06:21:52.943Z,22.47
2023-03-06T06:22:53.409Z,19.61
2023-03-06T06:23:52.910Z,15.12
2023-03-06T06:24:52.904Z,12.95
2023-03-06T06:25:52.900Z,10.95
2023-03-06T06:26:52.895Z,24.46
2023-03-06T06:27:52.891Z,26.40
2023-03-06T06:28:52.924Z,25.00
2023-03-06T06:29:52.871Z,29.75
2023-03-06T06:30:52.922Z,30.98
2023-03-06T06:31:52.846Z,28.32
2023-03-06T06:32:52.835Z,28.61
2023-03-06T06:33:52.829Z,27.67
2023-03-06T06:34:52.855Z,25.32
2023-03-06T06:35:53.101Z,29.32
2023-03-06T06:36:53.635Z,28.32
2023-03-06T06:37:52.812Z,30.15
2023-03-06T06:38:52.792Z,30.71
2023-03-06T06:39:52.790Z,27.76
2023-03-06T06:41:26.748Z,29.87
2023-03-06T06:42:06.323Z,30.14
2023-03-06T06:42:52.755Z,30.40
2023-03-06T06:43:52.914Z,31.62
2023-03-06T06:44:52.745Z,32.24
2023-03-06T06:45:55.749Z,31.84
2023-03-06T06:47:22.438Z,30.42
2023-03-06T06:47:52.754Z,30.81
2023-03-06T06:48:52.726Z,31.80
2023-03-06T06:49:53.042Z,33.32
2023-03-06T06:50:52.683Z,35.08
2023-03-06T06:51:52.950Z,44.10
2023-03-06T06:52:52.691Z,37.53
2023-03-06T06:53:52.667Z,35.28
2023-03-06T06:54:52.914Z,47.95
2023-03-06T06:55:52.665Z,52.96
2023-03-06T06:56:52.651Z,54.99
2023-03-06T06:57:52.645Z,56.68
2023-03-06T06:58:52.627Z,55.52
2023-03-06T06:59:54.066Z,57.85
2023-03-06T07:00:52.789Z,56.98
2023-03-06T07:01:53.253Z,56.77
2023-03-06T07:02:52.750Z,56.15
2023-03-06T07:03:52.753Z,54.75
2023-03-06T07:05:03.591Z,54.53
2023-03-06T07:05:52.696Z,54.70
2023-03-06T07:06:52.939Z,54.60
2023-03-06T07:08:52.672Z,49.66
2023-03-06T07:09:52.665Z,45.06
2023-03-06T07:10:52.846Z,44.37
2023-03-06T07:13:08.237Z,39.70
2023-03-06T07:13:52.640Z,39.98
2023-03-06T07:14:52.649Z,40.43
2023-03-06T07:15:52.740Z,39.78
2023-03-06T07:16:52.942Z,37.02
2023-03-06T07:17:52.943Z,32.18
2023-03-06T07:18:52.619Z,33.22
2023-03-06T07:19:52.591Z,33.07
2023-03-06T07:20:52.931Z,30.73
2023-03-06T07:21:52.566Z,27.54
2023-03-06T07:22:52.554Z,25.97
2023-03-06T07:23:52.574Z,28.68
2023-03-06T07:24:52.532Z,28.02
2023-03-06T07:25:52.942Z,27.05
2023-03-06T07:26:52.531Z,27.15
2023-03-06T07:27:53.927Z,25.00
2023-03-06T07:30:53.052Z,26.93
2023-03-06T07:37:52.937Z,25.91
2023-03-06T07:39:52.965Z,25.81
2023-03-06T07:47:52.948Z,23.80
2023-03-06T08:00:52.445Z,25.69
2023-03-06T08:02:52.533Z,26.36
2023-03-06T08:05:53.039Z,27.59
2023-03-06T08:07:52.457Z,29.56
2023-03-06T08:12:52.466Z,27.73
2023-03-06T08:16:52.627Z,31.65
2023-03-06T08:17:52.498Z,29.92
2023-03-06T08:21:52.476Z,34.50
2023-03-06T08:22:52.522Z,28.92
2023-03-06T08:26:52.250Z,29.47
2023-03-06T08:27:52.478Z,33.67
2023-03-06T08:28:52.231Z,33.59
2023-03-06T08:29:52.219Z,32.29
2023-03-06T08:30:53.216Z,31.86
2023-03-06T08:31:52.278Z,31.77
2023-03-06T08:32:52.487Z,31.99
2023-03-06T08:33:53.203Z,33.60
2023-03-06T08:34:52.181Z,32.36
2023-03-06T08:35:52.199Z,37.46
2023-03-06T08:36:52.157Z,47.38
2023-03-06T08:37:52.471Z,46.59
2023-03-06T08:38:52.178Z,54.20
2023-03-06T08:40:52.473Z,53.91
2023-03-06T08:43:53.456Z,64.19
2023-03-06T08:46:52.456Z,55.70
2023-03-06T08:49:52.483Z,51.18
2023-03-06T08:53:52.477Z,38.46
2023-03-06T08:56:55.162Z,27.81
2023-03-06T09:04:52.173Z,39.47
2023-03-06T09:41:51.985Z,114.82
2023-03-06T12:15:07.963Z,25.00
2023-03-06T12:16:08.659Z,25.00
2023-03-06T12:17:08.621Z,25.00
2023-03-06T12:18:08.677Z,25.00
2023-03-06T12:19:08.961Z,25.00
2023-03-06T12:20:08.980Z,44.68
2023-03-06T12:21:09.286Z,55.20
2023-03-06T12:22:10.621Z,22.98
2023-03-06T12:23:15.343Z,65.28
2023-03-06T12:24:08.564Z,65.94
2023-03-06T12:25:08.561Z,58.43
2023-03-06T12:26:08.547Z,69.88
2023-03-06T12:27:08.963Z,49.14
2023-03-06T12:28:08.522Z,67.39
2023-03-06T12:29:09.039Z,66.18
2023-03-06T12:30:08.507Z,86.99
2023-03-06T12:31:08.534Z,65.51
2023-03-06T12:32:08.760Z,89.52
2023-03-06T12:33:08.501Z,88.20
2023-03-06T12:34:08.988Z,92.55
2023-03-06T12:35:08.459Z,77.82
2023-03-06T12:36:08.460Z,85.82
2023-03-06T12:37:08.509Z,50.32
2023-03-06T12:38:08.458Z,48.92
2023-03-06T12:39:08.428Z,71.02
2023-03-06T12:40:08.418Z,82.64
2023-03-06T12:41:08.479Z,80.79
2023-03-06T12:42:11.496Z,77.07
2023-03-06T12:43:08.634Z,77.98
2023-03-06T12:44:09.009Z,78.67
2023-03-06T12:45:08.464Z,64.33
2023-03-06T12:46:08.448Z,2.25
2023-03-06T12:47:08.364Z,0.00
2023-03-06T12:48:08.343Z,7.54
2023-03-06T12:49:08.334Z,56.98
2023-03-06T12:50:08.464Z,48.38
2023-03-06T12:51:08.326Z,63.04
2023-03-06T12:52:08.911Z,55.22
2023-03-06T12:53:08.311Z,86.54
2023-03-06T12:54:08.320Z,120.20
2023-03-06T12:55:08.547Z,141.62
2023-03-06T12:56:08.318Z,135.88
2023-03-06T12:57:08.284Z,125.56
2023-03-06T12:58:08.262Z,105.15
2023-03-06T12:59:08.273Z,88.45
2023-03-06T13:00:08.556Z,74.17
2023-03-06T13:01:08.563Z,70.26
2023-03-06T13:02:08.301Z,90.49
2023-03-06T13:03:08.479Z,73.43
2023-03-06T13:04:08.218Z,79.64
2023-03-06T13:05:08.210Z,88.11
2023-03-06T13:06:08.194Z,75.17
2023-03-06T13:07:08.189Z,92.69
2023-03-06T13:08:08.478Z,111.62
2023-03-06T13:09:08.284Z,76.27
2023-03-06T13:10:08.197Z,66.40
2023-03-06T13:11:08.683Z,71.60
2023-03-06T13:12:08.153Z,105.48
2023-03-06T13:13:08.481Z,92.31
2023-03-06T13:14:08.130Z,73.13
2023-03-06T13:15:08.126Z,66.25
2023-03-06T13:16:08.121Z,70.87
2023-03-06T13:17:08.105Z,69.83
2023-03-06T13:18:08.104Z,51.66
2023-03-06T13:19:08.483Z,58.77
2023-03-06T13:20:08.080Z,61.84
2023-03-06T13:21:08.074Z,80.85
2023-03-06T13:22:09.011Z,74.45
2023-03-06T13:53:07.072Z,25.00
2023-03-06T13:54:08.087Z,25.00
2023-03-06T13:55:07.988Z,25.00
2023-03-06T13:56:08.340Z,25.00
2023-03-06T13:57:07.974Z,25.00
2023-03-06T13:58:07.940Z,0.00
2023-03-06T13:59:08.333Z,0.00
2023-03-06T14:00:10.083Z,0.00
2023-03-06T14:01:08.983Z,0.00
2023-03-06T14:02:08.829Z,0.00
2023-03-06T14:03:07.913Z,0.00
2023-03-06T14:04:08.338Z,0.00
2023-03-06T14:05:07.878Z,0.00
2023-03-06T14:06:07.872Z,0.00
2023-03-06T14:07:07.858Z,0.00
2023-03-06T14:08:07.856Z,0.00
2023-03-06T14:09:08.632Z,0.00
2023-03-06T14:10:08.633Z,19.72
2023-03-06T14:11:08.599Z,48.76
2023-03-06T14:12:08.277Z,28.83
2023-03-06T14:13:08.235Z,37.09
2023-03-06T14:14:07.888Z,35.33
2023-03-06T14:15:08.221Z,20.61
2023-03-06T14:16:08.151Z,39.38
2023-03-06T14:17:07.789Z,30.31
2023-03-06T14:18:07.775Z,27.88
2023-03-06T14:19:07.971Z,29.47
2023-03-06T14:20:07.845Z,37.04
2023-03-06T14:21:07.737Z,57.45
2023-03-06T14:22:07.724Z,47.01
2023-03-06T14:23:07.718Z,31.37
2023-03-06T14:24:07.867Z,56.32
2023-03-06T14:25:07.734Z,80.04
2023-03-06T14:26:07.685Z,43.04
2023-03-06T14:27:07.696Z,25.00
2023-03-06T14:28:14.108Z,34.29
2023-03-06T14:29:07.716Z,34.98
2023-03-06T14:30:07.840Z,36.69
2023-03-06T14:31:07.664Z,41.86
2023-03-06T14:32:07.669Z,38.18
2023-03-06T14:33:07.629Z,41.76
2023-03-06T14:34:07.633Z,21.78
2023-03-06T14:35:07.858Z,13.35
2023-03-06T14:36:07.608Z,19.86
2023-03-06T14:37:07.845Z,25.79
2023-03-06T14:38:07.584Z,23.46
2023-03-06T14:39:07.577Z,15.73
2023-03-06T14:40:07.848Z,27.27
2023-03-06T14:41:07.598Z,25.00
2023-03-06T14:42:07.559Z,34.72
2023-03-06T14:43:07.542Z,36.86
2023-03-06T14:44:07.533Z,31.25
2023-03-06T14:45:07.856Z,25.26
2023-03-06T14:46:07.545Z,22.47
2023-03-06T14:47:07.508Z,41.66
2023-03-06T14:48:07.499Z,37.50
2023-03-06T14:49:07.499Z,25.00
2023-03-06T14:50:07.496Z,24.51
2023-03-06T14:51:07.869Z,38.50
2023-03-06T14:52:07.486Z,46.48
2023-03-06T14:53:07.860Z,53.05
2023-03-06T14:54:07.458Z,79.00
2023-03-06T14:55:07.442Z,84.21
2023-03-06T14:56:07.440Z,108.67
2023-03-06T14:57:07.453Z,94.97
2023-03-06T14:58:07.422Z,111.15
2023-03-06T14:59:07.408Z,72.57
2023-03-06T15:00:07.396Z,118.56
2023-03-06T15:01:07.386Z,135.94
2023-03-06T15:02:07.396Z,139.39
2023-03-06T15:03:07.531Z,115.01
2023-03-06T15:04:07.373Z,70.81
2023-03-06T15:05:07.352Z,126.84
2023-03-06T15:06:07.378Z,159.30
2023-03-06T15:07:07.367Z,145.71
2023-03-06T15:08:07.340Z,162.14
2023-03-06T15:09:08.149Z,164.62
2023-03-06T15:10:07.317Z,135.66
2023-03-06T15:11:07.343Z,152.42
2023-03-06T15:12:07.318Z,126.43
2023-03-06T15:13:07.339Z,164.20
2023-03-06T15:14:07.303Z,155.35
2023-03-06T15:15:07.289Z,170.91
2023-03-06T15:16:07.341Z,170.80
2023-03-06T15:17:07.361Z,178.61
2023-03-06T15:18:07.245Z,171.76
2023-03-06T15:19:07.363Z,157.52
2023-03-06T15:20:07.221Z,110.91
2023-03-06T15:21:07.214Z,73.34
2023-03-06T15:22:07.204Z,124.59
2023-03-06T15:23:07.194Z,110.33
2023-03-06T15:24:07.371Z,122.69
2023-03-06T15:25:07.362Z,121.79
2023-03-06T15:26:07.172Z,106.48
2023-03-06T15:27:07.160Z,139.38
2023-03-06T15:28:07.156Z,100.11
2023-03-06T15:29:10.023Z,115.42
2023-03-06T15:30:07.137Z,115.80
2023-03-06T15:31:07.129Z,107.43
2023-03-06T15:32:07.147Z,94.58
2023-03-06T15:33:07.110Z,97.49
2023-03-06T15:34:07.422Z,90.19
2023-03-06T15:35:07.093Z,71.09
2023-03-06T15:36:07.099Z,79.29
2023-03-06T15:37:07.080Z,91.37
2023-03-06T15:38:07.064Z,123.76
2023-03-06T15:39:07.390Z,106.78
2023-03-06T15:40:07.396Z,142.49
2023-03-06T15:41:07.047Z,127.87
2023-03-06T15:42:07.036Z,106.52
2023-03-06T15:43:07.030Z,109.71
2023-03-06T15:44:07.377Z,129.42
2023-03-06T15:45:07.042Z,145.68
2023-03-06T15:46:07.134Z,166.20
2023-03-06T15:47:09.170Z,159.81
2023-03-06T15:48:07.291Z,128.38
2023-03-06T15:49:07.011Z,147.15
2023-03-06T15:50:07.408Z,155.79
2023-03-06T15:51:07.097Z,169.83
2023-03-06T15:52:06.954Z,179.01
2023-03-06T15:53:06.944Z,154.88
2023-03-06T15:54:12.352Z,136.07
2023-03-06T15:55:06.931Z,136.62
2023-03-06T15:56:06.917Z,138.90
2023-03-06T15:57:06.930Z,138.99
2023-03-06T15:58:06.899Z,143.08
2023-03-06T15:59:06.897Z,145.12
2023-03-06T16:00:10.832Z,154.17
2023-03-06T16:01:06.994Z,154.43
2023-03-06T16:02:06.873Z,156.06
2023-03-06T16:03:06.881Z,154.61
2023-03-06T16:04:06.853Z,162.65
2023-03-06T16:05:06.856Z,156.53
2023-03-06T16:06:06.883Z,146.50
2023-03-06T16:07:06.855Z,142.35
2023-03-06T16:08:06.821Z,147.34
2023-03-06T16:09:06.816Z,140.84
2023-03-06T16:10:06.809Z,141.00
2023-03-06T16:11:06.800Z,174.04
2023-03-06T16:12:06.785Z,188.15
2023-03-06T16:13:06.770Z,184.74
2023-03-06T16:14:06.766Z,197.01
2023-03-06T16:15:06.889Z,194.18
2023-03-06T16:16:06.754Z,201.24
2023-03-06T16:17:06.766Z,217.55
2023-03-06T16:18:06.737Z,207.29
2023-03-06T16:19:09.460Z,212.50
2023-03-06T16:20:06.760Z,213.05
2023-03-06T16:21:06.718Z,213.10
2023-03-06T16:22:06.699Z,213.78
2023-03-06T16:23:06.731Z,217.57
2023-03-06T16:24:06.689Z,222.61
2023-03-06T16:25:06.671Z,230.50
2023-03-06T16:26:06.921Z,220.40
2023-03-06T16:27:06.668Z,227.49
2023-03-06T16:28:06.650Z,231.87
2023-03-06T16:29:06.636Z,229.64
2023-03-06T16:30:06.630Z,238.39
2023-03-06T16:31:06.716Z,226.80
2023-03-06T16:32:06.626Z,228.16
2023-03-06T16:33:06.636Z,235.22
2023-03-06T16:34:06.594Z,239.61
2023-03-06T16:35:06.590Z,241.16
2023-03-06T16:36:06.579Z,241.21
2023-03-06T16:37:06.574Z,235.48
2023-03-06T16:38:06.571Z,247.71
2023-03-06T16:39:06.548Z,250.00
2023-03-06T16:40:06.537Z,236.47
2023-03-06T16:41:06.537Z,242.04
2023-03-06T16:42:06.535Z,246.41
2023-03-06T16:43:06.521Z,245.72
2023-03-06T16:44:06.508Z,248.79
2023-03-06T16:45:06.508Z,247.07
2023-03-06T16:46:06.593Z,245.19
2023-03-06T16:47:06.481Z,247.35
2023-03-06T16:48:06.477Z,248.72
2023-03-06T16:49:06.497Z,249.17
2023-03-06T16:50:06.458Z,249.34
2023-03-06T16:51:06.455Z,244.73
2023-03-06T16:52:06.445Z,249.27
2023-03-06T16:53:06.465Z,249.44
2023-03-06T16:54:06.429Z,247.14
2023-03-06T16:55:06.417Z,246.08
2023-03-06T16:56:06.409Z,240.62
2023-03-06T16:57:06.402Z,243.60
2023-03-06T16:58:06.400Z,245.20
2023-03-06T16:59:06.392Z,243.75
2023-03-06T17:00:06.392Z,241.24
2023-03-06T17:01:06.409Z,239.70
2023-03-06T17:02:06.365Z,245.16
2023-03-06T17:03:06.353Z,246.23
2023-03-06T17:04:06.355Z,246.74
2023-03-06T17:05:06.368Z,245.85
2023-03-06T17:06:06.330Z,245.90
2023-03-06T17:07:06.321Z,249.44
2023-03-06T17:08:06.311Z,249.01
2023-03-06T17:09:06.312Z,245.54
2023-03-06T17:10:06.304Z,247.94
2023-03-06T17:11:06.284Z,246.92
2023-03-06T17:12:06.285Z,244.79
2023-03-06T17:13:06.269Z,248.00
2023-03-06T17:14:06.302Z,248.56
2023-03-06T17:15:06.255Z,249.47
2023-03-06T17:16:06.254Z,247.50
2023-03-06T17:17:06.241Z,247.59
2023-03-06T17:18:06.239Z,248.54
2023-03-06T17:19:06.222Z,247.17
2023-03-06T17:20:06.215Z,244.15
2023-03-06T17:21:06.232Z,244.59
2023-03-06T17:22:06.193Z,246.38
2023-03-06T17:23:06.199Z,248.85
2023-03-06T17:24:06.177Z,248.46
2023-03-06T17:25:06.169Z,246.93
2023-03-06T17:26:06.162Z,244.93
2023-03-06T17:27:06.160Z,244.64
2023-03-06T17:28:06.146Z,245.06
2023-03-06T17:29:07.209Z,244.20
2023-03-06T17:30:06.151Z,243.48
2023-03-06T17:31:06.134Z,245.46
2023-03-06T17:32:06.162Z,243.34
2023-03-06T17:33:06.113Z,243.09
2023-03-06T17:34:06.102Z,245.37
2023-03-06T17:35:06.106Z,244.01
2023-03-06T17:36:06.092Z,245.49
2023-03-06T17:37:06.142Z,240.75
2023-03-06T17:38:06.063Z,245.60
2023-03-06T17:39:06.049Z,243.91
2023-03-06T17:40:06.045Z,243.48
2023-03-06T17:41:06.043Z,241.89
2023-03-06T17:42:06.027Z,242.43
2023-03-06T17:43:06.014Z,245.32
2023-03-06T17:44:06.007Z,241.98
2023-03-06T17:45:06.001Z,244.73
2023-03-06T17:46:06.143Z,244.53
2023-03-06T17:47:05.981Z,243.21
2023-03-06T17:48:05.977Z,241.64
2023-03-06T17:49:05.968Z,242.42
2023-03-06T17:50:05.977Z,245.55
2023-03-06T18:33:05.589Z,241.01
2023-03-06T18:34:05.591Z,244.67
2023-03-06T18:35:05.577Z,243.34
2023-03-06T18:36:05.562Z,244.63
2023-03-06T18:37:05.591Z,244.24
2023-03-06T18:38:05.563Z,243.33
2023-03-06T18:39:05.541Z,243.00
2023-03-06T18:40:05.541Z,246.29
2023-03-06T18:41:05.547Z,242.61
2023-03-06T18:42:05.514Z,241.33
2023-03-06T18:43:05.504Z,242.61
2023-03-06T18:44:05.507Z,243.59
2023-03-06T18:45:05.489Z,244.96
2023-03-06T18:46:05.568Z,242.69
2023-03-06T18:47:05.472Z,243.34
2023-03-06T18:48:05.459Z,243.59
2023-03-06T18:49:05.475Z,243.36
2023-03-06T18:50:05.442Z,245.07
2023-03-06T18:51:05.437Z,245.13
2023-03-06T18:52:05.430Z,243.86
2023-03-06T18:53:05.425Z,245.59
2023-03-06T18:54:05.415Z,242.00
2023-03-06T18:55:05.406Z,245.76
2023-03-06T18:56:05.422Z,242.57
2023-03-06T18:57:05.425Z,244.29
2023-03-06T18:58:05.402Z,246.55
2023-03-06T18:59:05.376Z,245.86
2023-03-06T19:00:05.388Z,243.86
2023-03-06T19:01:05.401Z,244.19
2023-03-06T19:02:05.347Z,246.17
2023-03-06T19:03:05.331Z,243.91
2023-03-06T19:04:05.398Z,244.73
2023-03-06T19:05:05.325Z,247.27
2023-03-06T19:06:05.315Z,246.41
2023-03-06T19:07:05.308Z,244.11
2023-03-06T19:08:05.304Z,246.56
2023-03-06T19:09:05.307Z,242.33
2023-03-06T19:10:05.275Z,245.13
2023-03-06T19:11:05.282Z,243.36
2023-03-06T19:12:05.280Z,242.97
2023-03-06T19:13:05.289Z,243.89
2023-03-06T19:14:05.255Z,240.55
2023-03-06T19:15:05.247Z,244.36
2023-03-06T19:16:05.534Z,244.98
2023-03-06T19:17:05.218Z,244.31
2023-03-06T19:18:05.215Z,247.33
2023-03-06T19:19:05.202Z,244.45
2023-03-06T19:20:05.208Z,245.83
2023-03-06T19:21:05.187Z,244.94
2023-03-06T19:22:05.189Z,243.03
2023-03-06T19:23:05.179Z,243.95
2023-03-06T19:24:05.159Z,242.69
2023-03-06T19:25:05.157Z,242.51
2023-03-06T19:26:05.142Z,246.40
2023-03-06T19:27:05.140Z,245.24
2023-03-06T19:28:05.128Z,245.48
2023-03-06T19:29:05.157Z,243.93
2023-03-06T19:30:05.115Z,246.95
2023-03-06T19:31:05.104Z,244.76
2023-03-06T19:32:05.242Z,243.05
2023-03-06T19:33:05.088Z,243.69
2023-03-06T19:34:05.086Z,243.88
2023-03-06T19:35:05.116Z,244.22
2023-03-06T19:36:05.106Z,246.06
2023-03-06T19:37:05.053Z,242.86
2023-03-06T19:38:05.041Z,241.96
2023-03-06T19:39:05.059Z,244.27
2023-03-06T19:40:05.026Z,241.39
2023-03-06T19:41:05.038Z,244.50
2023-03-06T19:42:05.026Z,245.01
2023-03-06T19:43:05.007Z,245.83
2023-03-06T19:44:05.052Z,244.00
2023-03-06T19:45:05.009Z,244.49
2023-03-06T19:46:05.027Z,243.77
2023-03-06T19:47:04.983Z,243.30
2023-03-06T19:48:04.963Z,243.65
2023-03-06T19:49:04.951Z,244.98
2023-03-06T19:50:04.967Z,243.99
2023-03-06T19:51:04.931Z,245.66
2023-03-06T19:52:04.928Z,244.54
2023-03-06T19:53:04.911Z,244.48
2023-03-06T19:54:04.905Z,243.41
2023-03-06T19:55:04.949Z,246.28
2023-03-06T19:56:04.890Z,244.59
2023-03-06T19:57:04.888Z,243.95
2023-03-06T19:58:04.873Z,243.19
2023-03-06T19:59:04.868Z,244.69
2023-03-06T20:00:04.856Z,242.65
2023-03-06T20:01:04.928Z,243.76
2023-03-06T20:02:04.834Z,245.14
2023-03-06T20:03:04.826Z,245.05
2023-03-06T20:04:04.829Z,244.54
2023-03-06T20:05:04.810Z,243.48
2023-03-06T20:06:04.810Z,241.75
2023-03-06T20:07:04.822Z,242.79
2023-03-06T20:08:04.790Z,244.97
2023-03-06T20:09:04.777Z,245.29
2023-03-06T20:10:04.773Z,244.26
2023-03-06T20:11:04.762Z,244.26
2023-03-06T20:12:07.754Z,244.53
2023-03-06T20:13:04.742Z,244.78
2023-03-06T20:14:04.747Z,244.62
2023-03-06T20:15:04.725Z,245.42
2023-03-06T20:16:04.810Z,243.45
2023-03-06T20:17:04.731Z,243.79
2023-03-06T20:18:04.695Z,243.88
2023-03-06T20:19:04.688Z,244.32
2023-03-06T20:20:04.693Z,242.62
2023-03-06T20:21:04.669Z,244.94
2023-03-06T20:22:04.661Z,245.58
2023-03-06T20:23:04.643Z,245.56
2023-03-06T20:24:04.641Z,243.71
2023-03-06T20:25:04.631Z,245.24
2023-03-06T20:26:04.624Z,245.94
2023-03-06T20:27:04.620Z,245.44
2023-03-06T20:28:04.615Z,244.35
2023-03-06T20:29:04.597Z,242.65
2023-03-06T20:30:07.006Z,245.28
2023-03-06T20:31:04.599Z,245.47
2023-03-06T20:32:04.641Z,245.80
2023-03-06T20:33:04.589Z,245.84
2023-03-06T20:34:04.553Z,245.54
2023-03-06T20:35:04.543Z,245.77
2023-03-06T20:36:04.595Z,241.38
2023-03-06T20:37:04.528Z,246.32
2023-03-06T20:38:04.514Z,243.38
2023-03-06T20:39:04.507Z,242.60
2023-03-06T20:40:04.532Z,245.27
2023-03-06T20:41:04.493Z,243.79
2023-03-06T20:42:04.495Z,246.44
2023-03-06T20:43:04.471Z,246.90
2023-03-06T20:44:04.496Z,246.03
2023-03-06T20:45:04.459Z,246.45
2023-03-06T20:46:04.490Z,245.09
2023-03-06T20:47:04.447Z,243.99
2023-03-06T20:48:04.445Z,245.83
2023-03-06T20:49:04.456Z,245.91
2023-03-06T20:50:04.423Z,243.93
2023-03-06T20:51:04.418Z,243.81
2023-03-06T20:52:04.399Z,244.84
2023-03-06T20:53:04.397Z,245.77
2023-03-06T20:54:04.392Z,246.33
2023-03-06T20:55:04.378Z,242.81
2023-03-06T20:56:04.374Z,245.32
2023-03-06T20:57:04.357Z,244.80
2023-03-06T20:58:04.351Z,243.96
2023-03-06T20:59:04.337Z,244.85
2023-03-06T21:00:04.335Z,244.34
2023-03-06T21:01:04.325Z,244.92
2023-03-06T21:02:04.353Z,243.77
2023-03-06T21:03:04.308Z,245.00
2023-03-06T21:04:04.309Z,243.97
2023-03-06T21:05:04.549Z,242.86
2023-03-06T21:06:04.280Z,243.30
2023-03-06T21:07:04.273Z,244.41
2023-03-06T21:08:04.275Z,246.61
2023-03-06T21:09:04.266Z,246.09
2023-03-06T21:10:04.254Z,245.87
2023-03-06T21:11:04.243Z,246.08
2023-03-06T21:12:04.235Z,246.01
2023-03-06T21:13:04.230Z,243.48
2023-03-06T21:14:04.244Z,246.56
2023-03-06T21:15:04.228Z,244.23
2023-03-06T21:16:04.228Z,242.57
2023-03-06T21:17:04.239Z,245.36
2023-03-06T21:18:04.224Z,242.87
2023-03-06T21:19:04.180Z,244.32
2023-03-06T21:20:04.222Z,245.70
2023-03-06T21:21:04.231Z,245.51
2023-03-06T21:22:04.154Z,241.85
2023-03-06T21:23:04.201Z,244.41
2023-03-06T21:24:04.135Z,243.04
2023-03-06T21:25:04.134Z,242.83
2023-03-06T21:26:04.121Z,244.15
2023-03-06T21:27:04.114Z,244.21
2023-03-06T21:28:04.104Z,240.06
2023-03-06T21:29:04.093Z,242.73
2023-03-06T21:30:04.091Z,241.93
2023-03-06T21:31:04.173Z,242.25
2023-03-06T21:32:04.194Z,243.78
2023-03-06T22:23:03.644Z,241.92
2023-03-06T22:24:03.634Z,243.37
2023-03-06T22:25:03.659Z,243.66
2023-03-06T22:26:03.630Z,243.80
2023-03-06T22:27:03.621Z,242.68
2023-03-06T22:28:03.605Z,244.45
2023-03-06T22:29:03.602Z,244.46
2023-03-06T22:30:03.587Z,245.09
2023-03-06T22:31:03.586Z,243.86
2023-03-06T22:32:03.701Z,243.21
2023-03-06T22:33:03.562Z,245.14
2023-03-06T22:34:04.515Z,244.84
2023-03-06T22:35:03.548Z,241.25
2023-03-06T22:36:03.558Z,242.55
2023-03-06T22:37:03.528Z,246.14
2023-03-06T22:38:03.512Z,244.34
2023-03-06T22:39:03.525Z,244.76
2023-03-06T22:40:03.502Z,244.15
2023-03-06T22:41:03.517Z,243.19
2023-03-06T22:42:03.528Z,244.78
2023-03-06T22:43:03.476Z,243.71
2023-03-06T22:44:03.471Z,244.26
2023-03-06T22:45:03.452Z,242.94
2023-03-06T22:46:03.485Z,243.26
2023-03-06T22:47:03.438Z,243.71
2023-03-06T22:48:10.909Z,243.09
2023-03-06T22:49:03.428Z,243.50
2023-03-06T22:50:03.419Z,244.26
2023-03-06T22:51:03.426Z,244.48
2023-03-06T22:52:03.401Z,245.41
2023-03-06T22:53:03.432Z,245.65
2023-03-06T22:54:03.382Z,246.36
2023-03-06T22:55:03.369Z,245.93
2023-03-06T22:56:03.372Z,243.35
2023-03-06T22:57:03.378Z,246.75
2023-03-06T22:58:03.353Z,246.89
2023-03-06T22:59:03.341Z,245.24
2023-03-06T23:00:03.331Z,244.79
2023-03-06T23:01:03.353Z,244.16
2023-03-06T23:02:03.317Z,244.10
2023-03-06T23:03:03.314Z,245.74
2023-03-06T23:04:03.418Z,243.98
2023-03-06T23:05:03.292Z,244.51
2023-03-06T23:06:03.281Z,244.85
2023-03-06T23:07:03.274Z,242.79
2023-03-06T23:08:03.270Z,243.23
2023-03-06T23:09:03.270Z,242.10
2023-03-06T23:10:03.251Z,242.21
2023-03-06T23:11:03.243Z,243.21
2023-03-06T23:12:03.230Z,242.72
2023-03-06T23:13:04.094Z,241.91
2023-03-06T23:14:03.219Z,245.87
2023-03-06T23:15:03.206Z,243.78
2023-03-06T23:16:03.247Z,242.49
2023-03-06T23:17:03.189Z,243.77
2023-03-06T23:18:03.182Z,244.64
2023-03-06T23:19:03.179Z,244.70
2023-03-06T23:20:03.175Z,242.60
2023-03-06T23:21:03.155Z,243.29
2023-03-06T23:22:03.153Z,244.61